Time;durP1;ratioP1;P1;durP2;ratioP2;P2;SDS_P1;SDS_P2;PMS_P1;PMS_P2;Temp;Humidity;BMP_temperature;BMP_pressure;BME280_temperature;BME280_humidity;BME280_pressure;Samples;Min_cycle;Max_cycle;Signal;HPM_P1;HPM_P2
2022/09/12 00:03:02;;;;;;;;;;;;;;;;;;8358189;28;29418;-79
2022/09/12 00:07:02;;;;;;;;;;;;;;;;;;8360279;28;28411;-79
2022/09/12 00:11:02;;;;;;;;;;;;;;;;;;8378126;28;27693;-79
2022/09/12 00:15:03;;;;;;;;;;;;;;;;;;8360559;28;28565;-79
2022/09/12 00:19:03;;;;;;;;;;;;;;;;;;8356222;28;28461;-79
2022/09/12 00:23:03;;;;;;;;;;;;;;;;;;8358201;28;28481;-79
2022/09/12 00:27:03;;;;;;;;;;;;;;;;;;8374574;28;27665;-78
2022/09/12 00:31:03;;;;;;;;;;;;;;;;;;8358474;28;28486;-80
2022/09/12 00:35:03;;;;;;;;;;;;;;;;;;8382159;28;28024;-79
2022/09/12 00:39:04;;;;;;;;;;;;;;;;;;8372895;28;28383;-80
2022/09/12 00:43:04;;;;;;;;;;;;;;;;;;8377660;28;46398;-79
2022/09/12 00:47:04;;;;;;;;;;;;;;;;;;8359850;28;29101;-79
2022/09/12 00:51:04;;;;;;;;;;;;;;;;;;8364140;28;28285;-78
2022/09/12 00:55:05;;;;;;;;;;;;;;;;;;8368721;28;28507;-79
2022/09/12 00:59:05;;;;;;;;;;;;;;;;;;8378670;28;28344;-80
2022/09/12 01:03:05;;;;;;;;;;;;;;;;;;8377996;28;28127;-81
2022/09/12 01:07:05;;;;;;;;;;;;;;;;;;8362108;28;29690;-80
2022/09/12 01:11:05;;;;;;;;;;;;;;;;;;8384354;28;28132;-81
2022/09/12 01:15:05;;;;;;;;;;;;;;;;;;8385581;28;28196;-80
2022/09/12 01:19:05;;;;;;;;;;;;;;;;;;8377522;28;28810;-82
2022/09/12 01:23:08;;;;;;;;;;;;;;;;;;8383082;28;28582;-81
2022/09/12 01:27:08;;;;;;;;;;;;;;;;;;8379154;28;27582;-80
2022/09/12 01:31:08;;;;;;;;;;;;;;;;;;8368710;28;28428;-79
2022/09/12 01:35:08;;;;;;;;;;;;;;;;;;8382766;28;27502;-80
2022/09/12 01:39:09;;;;;;;;;;;;;;;;;;8361952;28;28207;-80
2022/09/12 01:43:09;;;;;;;;;;;;;;;;;;8380692;28;27524;-80
2022/09/12 01:47:09;;;;;;;;;;;;;;;;;;8362800;28;29795;-79
2022/09/12 01:51:10;;;;;;;;;;;;;;;;;;8365986;28;28453;-80
2022/09/12 01:55:10;;;;;;;;;;;;;;;;;;8367952;28;28533;-80
2022/09/12 01:59:10;;;;;;;;;;;;;;;;;;8363081;28;28606;-80
2022/09/12 02:03:11;;;;;;;;;;;;;;;;;;8384369;28;28363;-79
2022/09/12 02:07:11;;;;;;;;;;;;;;;;;;8358639;28;28432;-78
2022/09/12 02:11:11;;;;;;;;;;;;;;;;;;8368216;28;28417;-80
2022/09/12 02:15:11;;;;;;;;;;;;;;;;;;8362852;28;28609;-81
2022/09/12 02:19:12;;;;;;;;;;;;;;;;;;8365035;28;28118;-80
2022/09/12 02:23:12;;;;;;;;;;;;;;;;;;8379579;28;29047;-79
2022/09/12 02:27:12;;;;;;;;;;;;;;;;;;8365036;28;28412;-79
2022/09/12 02:31:12;;;;;;;;;;;;;;;;;;8368495;28;28501;-80
2022/09/12 02:35:13;;;;;;;;;;;;;;;;;;8378175;28;28184;-78
2022/09/12 02:39:18;;;;;;;;;;;;;;;;;;8363548;28;29511;-80
2022/09/12 02:43:18;;;;;;;;;;;;;;;;;;8363704;28;29326;-79
2022/09/12 02:47:18;;;;;;;;;;;;;;;;;;8376362;28;28376;-79
2022/09/12 02:51:18;;;;;;;;;;;;;;;;;;8381172;28;27833;-80
2022/09/12 02:55:18;;;;;;;;;;;;;;;;;;8363725;28;28668;-79
2022/09/12 02:59:19;;;;;;;;;;;;;;;;;;8364740;28;29385;-80
2022/09/12 03:03:19;;;;;;;;;;;;;;;;;;8359935;28;28274;-80
2022/09/12 03:07:19;;;;;;;;;;;;;;;;;;8373589;28;27939;-81
2022/09/12 03:11:19;;;;;;;;;;;;;;;;;;8360561;28;28568;-79
2022/09/12 03:15:19;;;;;;;;;;;;;;;;;;8361629;28;29522;-78
2022/09/12 03:19:19;;;;;;;;;;;;;;;;;;8361639;28;28279;-77
2022/09/12 03:23:20;;;;;;;;;;;;;;;;;;8362284;28;28726;-80
2022/09/12 03:27:20;;;;;;;;;;;;;;;;;;8373103;28;27510;-79
2022/09/12 03:31:20;;;;;;;;;;;;;;;;;;8363020;28;28665;-78
2022/09/12 03:35:20;;;;;;;;;;;;;;;;;;8375525;28;29114;-77
2022/09/12 03:39:23;;;;;;;;;;;;;;;;;;8362652;28;28812;-81
2022/09/12 03:43:23;;;;;;;;;;;;;;;;;;8376139;28;27532;-79
2022/09/12 03:47:23;;;;;;;;;;;;;;;;;;8370261;28;28857;-80
2022/09/12 03:51:23;;;;;;;;;;;;;;;;;;8358807;28;28242;-79
2022/09/12 03:55:24;;;;;;;;;;;;;;;;;;8359798;28;28292;-81
2022/09/12 03:59:24;;;;;;;;;;;;;;;;;;8359336;28;29288;-79
2022/09/12 04:03:24;;;;;;;;;;;;;;;;;;8361614;28;28324;-77
2022/09/12 04:07:24;;;;;;;;;;;;;;;;;;8368512;28;27492;-79
2022/09/12 04:11:24;;;;;;;;;;;;;;;;;;8372587;28;28461;-80
2022/09/12 04:15:25;;;;;;;;;;;;;;;;;;8352767;28;28340;-78
2022/09/12 04:19:25;;;;;;;;;;;;;;;;;;8372364;28;27778;-77
2022/09/12 04:23:25;;;;;;;;;;;;;;;;;;8358842;28;28378;-79
2022/09/12 04:27:25;;;;;;;;;;;;;;;;;;8367353;28;29384;-79
2022/09/12 04:31:25;;;;;;;;;;;;;;;;;;8360943;28;28780;-79
2022/09/12 04:35:26;;;;;;;;;;;;;;;;;;8356595;28;28874;-81
2022/09/12 04:39:26;;;;;;;;;;;;;;;;;;8376488;28;28518;-78
2022/09/12 04:43:26;;;;;;;;;;;;;;;;;;8376758;28;28450;-78
2022/09/12 04:47:26;;;;;;;;;;;;;;;;;;8378966;28;27934;-81
2022/09/12 04:51:27;;;;;;;;;;;;;;;;;;8367473;28;28170;-81
2022/09/12 04:55:27;;;;;;;;;;;;;;;;;;8358123;28;28560;-79
2022/09/12 04:59:27;;;;;;;;;;;;;;;;;;8367760;28;29859;-78
2022/09/12 05:03:27;;;;;;;;;;;;;;;;;;8381792;28;28187;-80
2022/09/12 05:07:28;;;;;;;;;;;;;;;;;;8376103;28;29868;-80
2022/09/12 05:11:28;;;;;;;;;;;;;;;;;;8382193;28;28250;-80
2022/09/12 05:15:28;;;;;;;;;;;;;;;;;;8374852;28;28022;-81
2022/09/12 05:19:29;;;;;;;;;;;;;;;;;;8382082;28;27997;-79
2022/09/12 05:23:29;;;;;;;;;;;;;;;;;;8377663;28;28810;-79
2022/09/12 05:27:29;;;;;;;;;;;;;;;;;;8375767;28;27519;-80
2022/09/12 05:31:29;;;;;;;;;;;;;;;;;;8366980;28;28256;-81
2022/09/12 05:35:29;;;;;;;;;;;;;;;;;;8371141;28;28431;-79
2022/09/12 05:39:29;;;;;;;;;;;;;;;;;;8360946;28;28573;-79
2022/09/12 05:43:30;;;;;;;;;;;;;;;;;;8381457;28;28326;-80
2022/09/12 05:47:30;;;;;;;;;;;;;;;;;;8375890;28;28733;-80
2022/09/12 05:51:30;;;;;;;;;;;;;;;;;;8365688;28;29743;-80
2022/09/12 05:55:32;;;;;;;;;;;;;;;;;;8378461;28;28759;-79
2022/09/12 05:59:32;;;;;;;;;;;;;;;;;;8366138;28;28381;-77
2022/09/12 06:03:32;;;;;;;;;;;;;;;;;;8380997;28;28145;-78
2022/09/12 06:07:32;;;;;;;;;;;;;;;;;;8379725;28;28070;-80
2022/09/12 06:11:32;;;;;;;;;;;;;;;;;;8384035;28;28237;-78
2022/09/12 06:15:33;;;;;;;;;;;;;;;;;;8377541;28;28145;-79
2022/09/12 06:19:33;;;;;;;;;;;;;;;;;;8381148;28;28011;-79
2022/09/12 06:23:33;;;;;;;;;;;;;;;;;;8380243;28;27373;-77
2022/09/12 06:27:33;;;;;;;;;;;;;;;;;;8383086;28;27561;-79
2022/09/12 06:31:33;;;;;;;;;;;;;;;;;;8367505;28;28320;-79
2022/09/12 06:35:34;;;;;;;;;;;;;;;;;;8359658;28;28147;-79
2022/09/12 06:39:35;;;;;;;;;;;;;;;;;;8368369;28;28219;-78
2022/09/12 06:43:35;;;;;;;;;;;;;;;;;;8386462;28;27927;-80
2022/09/12 06:47:36;;;;;;;;;;;;;;;;;;8364199;28;28699;-81
2022/09/12 06:51:36;;;;;;;;;;;;;;;;;;8368136;28;28566;-82
2022/09/12 06:55:36;;;;;;;;;;;;;;;;;;8379616;28;28232;-80
2022/09/12 06:59:36;;;;;;;;;;;;;;;;;;8385682;28;27923;-83
2022/09/12 07:03:36;;;;;;;;;;;;;;;;;;8371310;28;28627;-82
2022/09/12 07:07:37;;;;;;;;;;;;;;;;;;8378170;28;28566;-82
2022/09/12 07:11:37;;;;;;;;;;;;;;;;;;8363203;28;28786;-79
2022/09/12 07:15:37;;;;;;;;;;;;;;;;;;8379419;28;27552;-81
2022/09/12 07:19:37;;;;;;;;;;;;;;;;;;8380195;28;28357;-79
2022/09/12 07:23:38;;;;;;;;;;;;;;;;;;8377639;28;27872;-81
2022/09/12 07:27:39;;;;;;;;;;;;;;;;;;8380623;28;27904;-80
2022/09/12 07:31:39;;;;;;;;;;;;;;;;;;8366654;28;28504;-81
2022/09/12 07:35:39;;;;;;;;;;;;;;;;;;8372223;28;28607;-82
2022/09/12 07:39:39;;;;;;;;;;;;;;;;;;8365585;28;28308;-82
2022/09/12 07:43:40;;;;;;;;;;;;;;;;;;8379637;28;27397;-83
2022/09/12 07:47:40;;;;;;;;;;;;;;;;;;8370151;28;29071;-83
2022/09/12 07:51:40;;;;;;;;;;;;;;;;;;8362711;28;28589;-81
2022/09/12 07:55:41;;;;;;;;;;;;;;;;;;8374727;28;27470;-79
2022/09/12 07:59:41;;;;;;;;;;;;;;;;;;8361038;28;28466;-81
2022/09/12 08:03:41;;;;;;;;;;;;;;;;;;8357345;28;28493;-80
2022/09/12 08:07:41;;;;;;;;;;;;;;;;;;8355561;28;28424;-80
2022/09/12 08:11:41;;;;;;;;;;;;;;;;;;8378011;28;28080;-82
2022/09/12 08:15:41;;;;;;;;;;;;;;;;;;8360282;28;28290;-82
2022/09/12 08:19:42;;;;;;;;;;;;;;;;;;8366910;28;27452;-79
2022/09/12 08:23:42;;;;;;;;;;;;;;;;;;8363208;28;29166;-84
2022/09/12 08:27:42;;;;;;;;;;;;;;;;;;8365682;28;28303;-81
2022/09/12 08:31:42;;;;;;;;;;;;;;;;;;8360843;28;28299;-82
2022/09/12 08:35:50;;;;;;;;;;;;;;;;;;8371524;28;28091;-84
2022/09/12 08:39:51;;;;;;;;;;;;;;;;;;8354328;28;28433;-78
2022/09/12 08:43:51;;;;;;;;;;;;;;;;;;8377534;28;27411;-80
2022/09/12 08:47:51;;;;;;;;;;;;;;;;;;8355656;28;28182;-79
2022/09/12 08:51:51;;;;;;;;;;;;;;;;;;8375473;28;28149;-80
2022/09/12 08:55:52;;;;;;;;;;;;;;;;;;8372513;28;28109;-80
2022/09/12 08:59:52;;;;;;;;;;;;;;;;;;8378753;28;28316;-80
2022/09/12 09:03:52;;;;;;;;;;;;;;;;;;8377311;28;27576;-78
2022/09/12 09:07:53;;;;;;;;;;;;;;;;;;8364958;28;28007;-80
2022/09/12 09:11:53;;;;;;;;;;;;;;;;;;8374956;28;27530;-80
2022/09/12 09:15:53;;;;;;;;;;;;;;;;;;8363701;27;28617;-78
2022/09/12 09:19:55;;;;;;;;;;;;;;;;;;8371928;28;28209;-79
2022/09/12 09:23:55;;;;;;;;;;;;;;;;;;8360961;28;28602;-80
2022/09/12 09:27:56;;;;;;;;;;;;;;;;;;8369850;27;28404;-79
2022/09/12 09:31:56;;;;;;;;;;;;;;;;;;8376338;28;28122;-79
2022/09/12 09:35:56;;;;;;;;;;;;;;;;;;8353820;28;28250;-76
2022/09/12 09:39:57;;;;;;;;;;;;;;;;;;8361744;28;30220;-77
2022/09/12 09:43:57;;;;;;;;;;;;;;;;;;8359310;28;28461;-77
2022/09/12 09:47:57;;;;;;;;;;;;;;;;;;8373810;28;27639;-78
2022/09/12 09:51:59;;;;;;;;;;;;;;;;;;8378308;28;28159;-78
2022/09/12 09:56:00;;;;;;;;;;;;;;;;;;8373773;28;27410;-78
2022/09/12 10:00:00;;;;;;;;;;;;;;;;;;8361139;28;28594;-78
2022/09/12 10:04:00;;;;;;;;;;;;;;;;;;8368938;28;28191;-75
2022/09/12 10:08:00;;;;;;;;;;;;;;;;;;8369394;28;27581;-79
2022/09/12 10:12:01;;;;;;;;;;;;;;;;;;8357002;28;28246;-77
2022/09/12 10:16:01;;;;;;;;;;;;;;;;;;8349153;28;28459;-77
2022/09/12 10:20:01;;;;;;;;;;;;;;;;;;8373678;28;27528;-77
2022/09/12 10:24:02;;;;;;;;;;;;;;;;;;8350394;28;28449;-79
2022/09/12 10:28:02;;;;;;;;;;;;;;;;;;8366875;28;28171;-79
2022/09/12 10:32:03;;;;;;;;;;;;;;;;;;8372882;28;27770;-77
2022/09/12 10:36:03;;;;;;;;;;;;;;;;;;8349287;28;29499;-78
2022/09/12 10:40:04;;;;;;;;;;;;;;;;;;8374320;28;27722;-78
2022/09/12 10:44:04;;;;;;;;;;;;;;;;;;8357156;28;29468;-76
2022/09/12 10:48:04;;;;;;;;;;;;;;;;;;8350353;28;29716;-78
2022/09/12 10:52:04;;;;;;;;;;;;;;;;;;8360904;28;29103;-78
2022/09/12 10:56:04;;;;;;;;;;;;;;;;;;8352796;28;28357;-79
2022/09/12 11:00:09;;;;;;;;;;;;;;;;;;8375754;28;27362;-78
2022/09/12 11:04:11;;;;;;;;;;;;;;;;;;8357684;28;48711;-79
2022/09/12 11:08:11;;;;;;;;;;;;;;;;;;8366624;28;28419;-78
2022/09/12 11:12:11;;;;;;;;;;;;;;;;;;8354575;28;28769;-79
2022/09/12 11:16:12;;;;;;;;;;;;;;;;;;8352908;28;28901;-80
2022/09/12 11:20:12;;;;;;;;;;;;;;;;;;8361046;28;28739;-78
2022/09/12 11:24:12;;;;;;;;;;;;;;;;;;8377272;28;27682;-79
2022/09/12 11:28:12;;;;;;;;;;;;;;;;;;8369362;28;27852;-78
2022/09/12 11:32:13;;;;;;;;;;;;;;;;;;8369081;28;28547;-80
2022/09/12 11:36:13;;;;;;;;;;;;;;;;;;8357153;28;28422;-79
2022/09/12 11:40:15;;;;;;;;;;;;;;;;;;8370971;28;27610;-79
2022/09/12 11:44:15;;;;;;;;;;;;;;;;;;8372971;28;27875;-78
2022/09/12 11:48:15;;;;;;;;;;;;;;;;;;8367287;28;28280;-79
2022/09/12 11:52:15;;;;;;;;;;;;;;;;;;8368353;28;29393;-79
2022/09/12 11:56:15;;;;;;;;;;;;;;;;;;8354068;28;28935;-78
2022/09/12 12:00:16;;;;;;;;;;;;;;;;;;8372183;28;28612;-78
2022/09/12 12:04:16;;;;;;;;;;;;;;;;;;8357750;28;28328;-78
2022/09/12 12:08:17;;;;;;;;;;;;;;;;;;8363512;28;28698;-78
2022/09/12 12:12:17;;;;;;;;;;;;;;;;;;8361530;28;28814;-78
2022/09/12 12:16:18;;;;;;;;;;;;;;;;;;8367403;28;28523;-78
2022/09/12 12:20:18;;;;;;;;;;;;;;;;;;8373543;28;28228;-77
2022/09/12 12:24:18;;;;;;;;;;;;;;;;;;8359310;28;29884;-78
2022/09/12 12:28:19;;;;;;;;;;;;;;;;;;8367002;28;27271;-79
2022/09/12 12:32:19;;;;;;;;;;;;;;;;;;8368310;28;28564;-79
2022/09/12 12:36:19;;;;;;;;;;;;;;;;;;8364171;28;27578;-79
2022/09/12 12:40:19;;;;;;;;;;;;;;;;;;8367739;28;28719;-77
2022/09/12 12:44:19;;;;;;;;;;;;;;;;;;8352611;28;28399;-79
2022/09/12 12:48:19;;;;;;;;;;;;;;;;;;8353613;28;28463;-77
2022/09/12 12:52:19;;;;;;;;;;;;;;;;;;8376332;28;27878;-77
2022/09/12 12:56:19;;;;;;;;;;;;;;;;;;8372608;28;27456;-78
2022/09/12 13:00:20;;;;;;;;;;;;;;;;;;8378212;28;28369;-78
2022/09/12 13:04:20;;;;;;;;;;;;;;;;;;8355722;28;28987;-79
2022/09/12 13:08:20;;;;;;;;;;;;;;;;;;8358146;28;28680;-78
2022/09/12 13:12:20;;;;;;;;;;;;;;;;;;8377256;28;28755;-79
2022/09/12 13:16:20;;;;;;;;;;;;;;;;;;8368193;28;28234;-78
2022/09/12 13:20:20;;;;;;;;;;;;;;;;;;8371453;28;28051;-77
2022/09/12 13:24:20;;;;;;;;;;;;;;;;;;8373032;28;28043;-79
2022/09/12 13:28:21;;;;;;;;;;;;;;;;;;8370765;28;28032;-78
2022/09/12 13:32:21;;;;;;;;;;;;;;;;;;8369944;28;27590;-78
2022/09/12 13:36:21;;;;;;;;;;;;;;;;;;8365706;28;28591;-78
2022/09/12 13:40:22;;;;;;;;;;;;;;;;;;8374906;28;27641;-79
2022/09/12 13:44:23;;;;;;;;;;;;;;;;;;8357453;28;28706;-76
2022/09/12 13:48:23;;;;;;;;;;;;;;;;;;8367847;28;28241;-78
2022/09/12 13:52:23;;;;;;;;;;;;;;;;;;8366028;28;28416;-76
2022/09/12 13:56:23;;;;;;;;;;;;;;;;;;8359876;28;27548;-76
2022/09/12 14:00:23;;;;;;;;;;;;;;;;;;8356216;28;28289;-77
2022/09/12 14:08:42;;;;;;;;;;;;;;;;;;8354512;28;27891;-77
2022/09/12 14:12:49;;;;;;;;;;;;;;;;;;8355961;28;29304;-76
2022/09/12 14:16:50;;;;;;;;;;;;;;;;;;8365252;28;28118;-75
2022/09/12 14:20:52;;;;;;;;;;;;;;;;;;8355127;28;28655;-77
2022/09/12 14:24:52;;;;;;;;;;;;;;;;;;8356022;28;27853;-77
2022/09/12 14:28:52;;;;;;;;;;;;;;;;;;8343660;28;28502;-77
2022/09/12 14:32:52;;;;;;;;;;;;;;;;;;8349236;28;28905;-78
2022/09/12 14:36:54;;;;;;;;;;;;;;;;;;8344266;28;28530;-77
2022/09/12 14:40:54;;;;;;;;;;;;;;;;;;8358526;28;28422;-79
2022/09/12 14:44:55;;;;;;;;;;;;;;;;;;8362019;28;28289;-77
2022/09/12 14:48:56;;;;;;;;;;;;;;;;;;8362181;28;28491;-77
2022/09/12 14:52:56;;;;;;;;;;;;;;;;;;8355149;28;28705;-77
2022/09/12 14:56:56;;;;;;;;;;;;;;;;;;8368515;28;28773;-78
2022/09/12 15:00:56;;;;;;;;;;;;;;;;;;8371274;28;28069;-77
2022/09/12 15:04:57;;;;;;;;;;;;;;;;;;8368924;28;28694;-79
2022/09/12 15:08:57;;;;;;;;;;;;;;;;;;8362875;28;28510;-77
2022/09/12 15:12:57;;;;;;;;;;;;;;;;;;8367859;28;28839;-77
2022/09/12 15:16:57;;;;;;;;;;;;;;;;;;8365550;28;27764;-77
2022/09/12 15:20:57;;;;;;;;;;;;;;;;;;8369507;28;29024;-78
2022/09/12 15:24:57;;;;;;;;;;;;;;;;;;8354873;28;28323;-79
2022/09/12 15:28:58;;;;;;;;;;;;;;;;;;8367022;28;27998;-76
2022/09/12 15:32:58;;;;;;;;;;;;;;;;;;8371105;28;28103;-77
2022/09/12 15:36:59;;;;;;;;;;;;;;;;;;8367435;28;28194;-78
2022/09/12 15:40:59;;;;;;;;;;;;;;;;;;8352533;28;29299;-76
2022/09/12 15:44:59;;;;;;;;;;;;;;;;;;8355656;28;29548;-77
2022/09/12 15:48:59;;;;;;;;;;;;;;;;;;8365901;28;28138;-78
2022/09/12 15:52:59;;;;;;;;;;;;;;;;;;8366270;28;28704;-78
2022/09/12 15:56:59;;;;;;;;;;;;;;;;;;8362746;28;28184;-77
2022/09/12 16:01:00;;;;;;;;;;;;;;;;;;8371256;28;27290;-78
2022/09/12 16:05:00;;;;;;;;;;;;;;;;;;8358764;28;29601;-78
2022/09/12 16:09:00;;;;;;;;;;;;;;;;;;8372162;28;28035;-78
2022/09/12 16:13:03;;;;;;;;;;;;;;;;;;8368044;28;28301;-77
2022/09/12 16:17:03;;;;;;;;;;;;;;;;;;8371331;28;27939;-77
2022/09/12 16:21:03;;;;;;;;;;;;;;;;;;8366051;28;27719;-77
2022/09/12 16:25:03;;;;;;;;;;;;;;;;;;8369546;28;27552;-77
2022/09/12 16:29:04;;;;;;;;;;;;;;;;;;8371194;28;27884;-77
2022/09/12 16:33:04;;;;;;;;;;;;;;;;;;8362398;28;28476;-78
2022/09/12 16:37:04;;;;;;;;;;;;;;;;;;8360524;28;28170;-75
2022/09/12 16:41:04;;;;;;;;;;;;;;;;;;8378577;28;27555;-76
2022/09/12 16:45:05;;;;;;;;;;;;;;;;;;8352539;28;28569;-77
2022/09/12 16:49:06;;;;;;;;;;;;;;;;;;8349438;28;28309;-76
2022/09/12 16:53:06;;;;;;;;;;;;;;;;;;8356427;28;28230;-77
2022/09/12 16:57:06;;;;;;;;;;;;;;;;;;8366709;28;27901;-77
2022/09/12 17:01:06;;;;;;;;;;;;;;;;;;8359013;28;28355;-79
2022/09/12 17:05:06;;;;;;;;;;;;;;;;;;8372681;28;27964;-78
2022/09/12 17:09:07;;;;;;;;;;;;;;;;;;8355187;28;28268;-77
2022/09/12 17:13:07;;;;;;;;;;;;;;;;;;8361534;28;28828;-77
2022/09/12 17:17:07;;;;;;;;;;;;;;;;;;8353037;28;28297;-78
2022/09/12 17:21:07;;;;;;;;;;;;;;;;;;8370173;28;28493;-78
2022/09/12 17:25:07;;;;;;;;;;;;;;;;;;8363814;28;28270;-78
2022/09/12 17:29:07;;;;;;;;;;;;;;;;;;8364538;28;28581;-76
2022/09/12 17:33:07;;;;;;;;;;;;;;;;;;8367614;28;28575;-76
2022/09/12 17:37:08;;;;;;;;;;;;;;;;;;8370256;28;27928;-77
2022/09/12 17:41:09;;;;;;;;;;;;;;;;;;8368029;28;27533;-76
2022/09/12 17:45:10;;;;;;;;;;;;;;;;;;8371439;28;27230;-77
2022/09/12 17:49:10;;;;;;;;;;;;;;;;;;8367610;28;28435;-77
2022/09/12 17:53:12;;;;;;;;;;;;;;;;;;8372321;28;27446;-78
2022/09/12 17:57:12;;;;;;;;;;;;;;;;;;8365309;28;27538;-77
2022/09/12 18:05:30;;;;;;;;;;;;;;;;;;8363546;28;27796;-76
2022/09/12 18:09:31;;;;;;;;;;;;;;;;;;8352290;28;28868;-78
2022/09/12 18:13:31;;;;;;;;;;;;;;;;;;8366674;28;28150;-77
2022/09/12 18:17:32;;;;;;;;;;;;;;;;;;8366157;28;27841;-77
2022/09/12 18:21:32;;;;;;;;;;;;;;;;;;8346723;28;28260;-78
2022/09/12 18:25:32;;;;;;;;;;;;;;;;;;8362999;28;27885;-78
2022/09/12 18:29:32;;;;;;;;;;;;;;;;;;8364641;28;27289;-79
2022/09/12 18:33:32;;;;;;;;;;;;;;;;;;8363445;28;27530;-78
2022/09/12 18:37:32;;;;;;;;;;;;;;;;;;8360262;28;27826;-79
2022/09/12 18:41:33;;;;;;;;;;;;;;;;;;8353529;28;28306;-78
2022/09/12 18:45:33;;;;;;;;;;;;;;;;;;8366621;28;27533;-78
2022/09/12 18:49:34;;;;;;;;;;;;;;;;;;8371850;28;27405;-79
2022/09/12 18:53:35;;;;;;;;;;;;;;;;;;8368340;28;27781;-78
2022/09/12 18:57:35;;;;;;;;;;;;;;;;;;8345910;28;28491;-80
2022/09/12 19:01:35;;;;;;;;;;;;;;;;;;8359891;28;28339;-78
2022/09/12 19:05:36;;;;;;;;;;;;;;;;;;8373953;28;28519;-77
2022/09/12 19:09:36;;;;;;;;;;;;;;;;;;8355430;28;28573;-77
2022/09/12 19:13:36;;;;;;;;;;;;;;;;;;8356757;28;29067;-77
2022/09/12 19:17:36;;;;;;;;;;;;;;;;;;8355536;28;28241;-77
2022/09/12 19:21:36;;;;;;;;;;;;;;;;;;8375077;28;29374;-77
2022/09/12 19:25:36;;;;;;;;;;;;;;;;;;8368503;28;27976;-78
2022/09/12 19:29:36;;;;;;;;;;;;;;;;;;8371595;28;28703;-77
2022/09/12 19:33:37;;;;;;;;;;;;;;;;;;8373293;28;27597;-78
2022/09/12 19:37:37;;;;;;;;;;;;;;;;;;8370906;28;28211;-77
2022/09/12 19:41:37;;;;;;;;;;;;;;;;;;8359896;28;28992;-78
2022/09/12 19:45:37;;;;;;;;;;;;;;;;;;8356955;28;28687;-77
2022/09/12 19:49:37;;;;;;;;;;;;;;;;;;8359784;28;28212;-76
2022/09/12 19:53:37;;;;;;;;;;;;;;;;;;8355366;28;28469;-77
2022/09/12 19:57:38;;;;;;;;;;;;;;;;;;8366948;28;27555;-78
2022/09/12 20:01:38;;;;;;;;;;;;;;;;;;8368824;28;29330;-78
2022/09/12 20:05:38;;;;;;;;;;;;;;;;;;8354239;27;28371;-77
2022/09/12 20:09:38;;;;;;;;;;;;;;;;;;8371084;28;28175;-78
2022/09/12 20:13:38;;;;;;;;;;;;;;;;;;8350549;28;29291;-78
2022/09/12 20:17:39;;;;;;;;;;;;;;;;;;8355346;28;30650;-77
2022/09/12 20:21:39;;;;;;;;;;;;;;;;;;8371412;28;27969;-77
2022/09/12 20:25:40;;;;;;;;;;;;;;;;;;8355829;28;28270;-79
2022/09/12 20:29:40;;;;;;;;;;;;;;;;;;8351109;28;30302;-78
2022/09/12 20:33:40;;;;;;;;;;;;;;;;;;8349981;28;28157;-77
2022/09/12 20:37:40;;;;;;;;;;;;;;;;;;8361338;28;27369;-77
2022/09/12 20:41:40;;;;;;;;;;;;;;;;;;8367698;28;28158;-77
2022/09/12 20:45:41;;;;;;;;;;;;;;;;;;8350796;28;28412;-78
2022/09/12 20:49:41;;;;;;;;;;;;;;;;;;8369387;28;29084;-79
2022/09/12 20:53:41;;;;;;;;;;;;;;;;;;8352984;28;28759;-77
2022/09/12 20:57:41;;;;;;;;;;;;;;;;;;8361963;28;27964;-78
2022/09/12 21:01:42;;;;;;;;;;;;;;;;;;8360322;28;28358;-77
2022/09/12 21:05:42;;;;;;;;;;;;;;;;;;8361294;28;28663;-77
2022/09/12 21:09:43;;;;;;;;;;;;;;;;;;8366609;28;28421;-78
2022/09/12 21:13:43;;;;;;;;;;;;;;;;;;8357237;28;28223;-77
2022/09/12 21:17:43;;;;;;;;;;;;;;;;;;8367358;28;28067;-79
2022/09/12 21:21:43;;;;;;;;;;;;;;;;;;8358537;28;28920;-78
2022/09/12 21:25:43;;;;;;;;;;;;;;;;;;8367973;27;28289;-77
2022/09/12 21:29:44;;;;;;;;;;;;;;;;;;8371014;28;28190;-77
2022/09/12 21:33:44;;;;;;;;;;;;;;;;;;8370565;28;27481;-77
2022/09/12 21:37:44;;;;;;;;;;;;;;;;;;8364087;28;28492;-77
2022/09/12 21:41:44;;;;;;;;;;;;;;;;;;8369127;28;27977;-79
2022/09/12 21:45:44;;;;;;;;;;;;;;;;;;8354251;28;29691;-78
2022/09/12 21:49:44;;;;;;;;;;;;;;;;;;8376577;28;27826;-77
2022/09/12 21:53:44;;;;;;;;;;;;;;;;;;8353888;28;28505;-78
2022/09/12 21:57:45;;;;;;;;;;;;;;;;;;8369306;28;28656;-79
2022/09/12 22:01:45;;;;;;;;;;;;;;;;;;8352087;28;28753;-78
2022/09/12 22:05:45;;;;;;;;;;;;;;;;;;8365750;27;28323;-78
2022/09/12 22:09:46;;;;;;;;;;;;;;;;;;8357457;28;28698;-77
2022/09/12 22:13:46;;;;;;;;;;;;;;;;;;8352677;28;29771;-78
2022/09/12 22:17:46;;;;;;;;;;;;;;;;;;8374567;28;27673;-78
2022/09/12 22:26:05;;;;;;;;;;;;;;;;;;8365670;28;27955;-77
2022/09/12 22:30:05;;;;;;;;;;;;;;;;;;8370341;28;28311;-77
2022/09/12 22:34:06;;;;;;;;;;;;;;;;;;8361489;28;28334;-77
2022/09/12 22:38:06;;;;;;;;;;;;;;;;;;8355211;28;28225;-78
2022/09/12 22:42:08;;;;;;;;;;;;;;;;;;8369386;28;28134;-78
2022/09/12 22:46:08;;;;;;;;;;;;;;;;;;8371852;28;27477;-78
2022/09/12 22:50:08;;;;;;;;;;;;;;;;;;8358823;28;28271;-80
2022/09/12 22:54:08;;;;;;;;;;;;;;;;;;8355660;28;29297;-78
2022/09/12 22:58:08;;;;;;;;;;;;;;;;;;8373750;28;27860;-77
2022/09/12 23:02:08;;;;;;;;;;;;;;;;;;8362150;28;28364;-77
2022/09/12 23:06:11;;;;;;;;;;;;;;;;;;8378898;28;27920;-77
2022/09/12 23:10:11;;;;;;;;;;;;;;;;;;8359801;28;28268;-78
2022/09/12 23:14:24;;;;;;;;;;;;;;;;;;8359117;28;28217;-78
2022/09/12 23:18:24;;;;;;;;;;;;;;;;;;8371741;28;28048;-77
2022/09/12 23:22:24;;;;;;;;;;;;;;;;;;8357848;28;28225;-78
2022/09/12 23:26:27;;;;;;;;;;;;;;;;;;8372953;28;27933;-77
2022/09/12 23:30:27;;;;;;;;;;;;;;;;;;8377326;28;27348;-78
2022/09/12 23:34:28;;;;;;;;;;;;;;;;;;8373976;28;28628;-77
2022/09/12 23:38:28;;;;;;;;;;;;;;;;;;8359079;28;28502;-78
2022/09/12 23:42:28;;;;;;;;;;;;;;;;;;8375355;28;27937;-77
2022/09/12 23:46:28;;;;;;;;;;;;;;;;;;8373467;28;28743;-78
2022/09/12 23:50:28;;;;;;;;;;;;;;;;;;8371669;28;28144;-78
2022/09/12 23:54:28;;;;;;;;;;;;;;;;;;8359370;28;29280;-78
2022/09/12 23:58:32;;;;;;;;;;;;;;;;;;8356701;28;28507;-78
